sensor_id;sensor_type;location;lat;lon;timestamp;P1;durP1;ratioP1;P2;durP2;ratioP2
21266;SDS011;10791;53.108;18.326;2024-01-15T00:01:28;5.47;;;3.23;;
21266;SDS011;10791;53.108;18.326;2024-01-15T00:06:32;4.77;;;2.90;;
21266;SDS011;10791;53.108;18.326;2024-01-15T00:11:36;5.53;;;3.03;;
21266;SDS011;10791;53.108;18.326;2024-01-15T00:16:40;5.90;;;3.33;;
21266;SDS011;10791;53.108;18.326;2024-01-15T00:21:44;3.83;;;2.63;;
21266;SDS011;10791;53.108;18.326;2024-01-15T00:26:47;5.30;;;1.97;;
21266;SDS011;10791;53.108;18.326;2024-01-15T00:31:50;5.17;;;2.73;;
21266;SDS011;10791;53.108;18.326;2024-01-15T00:36:54;5.33;;;3.03;;
21266;SDS011;10791;53.108;18.326;2024-01-15T00:41:57;6.43;;;2.60;;
21266;SDS011;10791;53.108;18.326;2024-01-15T00:47:00;6.20;;;3.53;;
21266;SDS011;10791;53.108;18.326;2024-01-15T00:52:04;4.83;;;3.57;;
21266;SDS011;10791;53.108;18.326;2024-01-15T00:57:07;7.27;;;4.07;;
21266;SDS011;10791;53.108;18.326;2024-01-15T01:02:10;4.70;;;2.47;;
21266;SDS011;10791;53.108;18.326;2024-01-15T01:07:13;10.03;;;3.50;;
21266;SDS011;10791;53.108;18.326;2024-01-15T01:12:17;5.20;;;2.93;;
21266;SDS011;10791;53.108;18.326;2024-01-15T01:17:20;7.13;;;3.43;;
21266;SDS011;10791;53.108;18.326;2024-01-15T01:22:24;4.97;;;3.00;;
21266;SDS011;10791;53.108;18.326;2024-01-15T01:27:27;4.30;;;2.63;;
21266;SDS011;10791;53.108;18.326;2024-01-15T01:32:30;5.67;;;3.77;;
21266;SDS011;10791;53.108;18.326;2024-01-15T01:37:33;6.13;;;3.00;;
21266;SDS011;10791;53.108;18.326;2024-01-15T01:42:37;4.30;;;2.50;;
21266;SDS011;10791;53.108;18.326;2024-01-15T01:47:40;4.93;;;2.70;;
21266;SDS011;10791;53.108;18.326;2024-01-15T01:52:43;5.67;;;2.73;;
21266;SDS011;10791;53.108;18.326;2024-01-15T01:57:47;4.43;;;2.97;;
21266;SDS011;10791;53.108;18.326;2024-01-15T02:02:50;4.50;;;2.63;;
21266;SDS011;10791;53.108;18.326;2024-01-15T02:07:53;5.00;;;2.53;;
21266;SDS011;10791;53.108;18.326;2024-01-15T02:12:56;5.53;;;2.73;;
21266;SDS011;10791;53.108;18.326;2024-01-15T02:18:01;3.60;;;2.13;;
21266;SDS011;10791;53.108;18.326;2024-01-15T02:23:09;4.40;;;2.33;;
21266;SDS011;10791;53.108;18.326;2024-01-15T02:28:15;6.33;;;2.70;;
21266;SDS011;10791;53.108;18.326;2024-01-15T02:33:21;3.53;;;2.30;;
21266;SDS011;10791;53.108;18.326;2024-01-15T02:38:24;4.47;;;3.33;;
21266;SDS011;10791;53.108;18.326;2024-01-15T02:43:27;5.63;;;3.33;;
21266;SDS011;10791;53.108;18.326;2024-01-15T02:48:30;4.43;;;2.40;;
21266;SDS011;10791;53.108;18.326;2024-01-15T02:53:35;3.00;;;2.10;;
21266;SDS011;10791;53.108;18.326;2024-01-15T02:58:39;4.53;;;2.73;;
21266;SDS011;10791;53.108;18.326;2024-01-15T03:03:42;6.03;;;3.00;;
21266;SDS011;10791;53.108;18.326;2024-01-15T03:08:45;4.67;;;2.70;;
21266;SDS011;10791;53.108;18.326;2024-01-15T03:13:48;2.87;;;2.33;;
21266;SDS011;10791;53.108;18.326;2024-01-15T03:18:51;5.83;;;3.20;;
21266;SDS011;10791;53.108;18.326;2024-01-15T03:23:54;4.27;;;2.73;;
21266;SDS011;10791;53.108;18.326;2024-01-15T03:28:58;5.73;;;2.87;;
21266;SDS011;10791;53.108;18.326;2024-01-15T03:34:01;5.37;;;2.67;;
21266;SDS011;10791;53.108;18.326;2024-01-15T03:39:04;6.80;;;3.00;;
21266;SDS011;10791;53.108;18.326;2024-01-15T03:44:07;6.33;;;3.60;;
21266;SDS011;10791;53.108;18.326;2024-01-15T03:49:10;6.33;;;3.60;;
21266;SDS011;10791;53.108;18.326;2024-01-15T03:54:14;6.37;;;3.50;;
21266;SDS011;10791;53.108;18.326;2024-01-15T03:59:20;4.87;;;3.10;;
21266;SDS011;10791;53.108;18.326;2024-01-15T04:04:23;7.13;;;3.17;;
21266;SDS011;10791;53.108;18.326;2024-01-15T04:09:27;8.50;;;3.53;;
21266;SDS011;10791;53.108;18.326;2024-01-15T04:14:30;6.07;;;2.67;;
21266;SDS011;10791;53.108;18.326;2024-01-15T04:19:33;3.53;;;2.30;;
21266;SDS011;10791;53.108;18.326;2024-01-15T04:24:39;6.83;;;3.03;;
21266;SDS011;10791;53.108;18.326;2024-01-15T04:29:45;4.10;;;2.37;;
21266;SDS011;10791;53.108;18.326;2024-01-15T04:34:49;4.77;;;2.73;;
21266;SDS011;10791;53.108;18.326;2024-01-15T04:39:58;3.80;;;2.43;;
21266;SDS011;10791;53.108;18.326;2024-01-15T04:45:20;3.90;;;1.43;;
21266;SDS011;10791;53.108;18.326;2024-01-15T04:50:44;4.67;;;2.20;;
21266;SDS011;10791;53.108;18.326;2024-01-15T04:55:51;4.90;;;2.70;;
21266;SDS011;10791;53.108;18.326;2024-01-15T05:00:55;8.07;;;3.07;;
21266;SDS011;10791;53.108;18.326;2024-01-15T05:05:59;5.03;;;2.03;;
21266;SDS011;10791;53.108;18.326;2024-01-15T05:11:02;3.90;;;2.67;;
21266;SDS011;10791;53.108;18.326;2024-01-15T05:16:06;4.03;;;2.37;;
21266;SDS011;10791;53.108;18.326;2024-01-15T05:21:14;5.33;;;2.17;;
21266;SDS011;10791;53.108;18.326;2024-01-15T05:26:17;4.20;;;2.23;;
21266;SDS011;10791;53.108;18.326;2024-01-15T05:31:21;3.67;;;2.10;;
21266;SDS011;10791;53.108;18.326;2024-01-15T05:36:31;5.33;;;2.77;;
21266;SDS011;10791;53.108;18.326;2024-01-15T05:41:47;3.23;;;1.77;;
21266;SDS011;10791;53.108;18.326;2024-01-15T05:46:51;2.03;;;0.60;;
21266;SDS011;10791;53.108;18.326;2024-01-15T05:52:08;2.97;;;1.17;;
21266;SDS011;10791;53.108;18.326;2024-01-15T05:57:11;2.37;;;1.10;;
21266;SDS011;10791;53.108;18.326;2024-01-15T06:02:15;1.03;;;0.67;;
21266;SDS011;10791;53.108;18.326;2024-01-15T06:07:18;1.07;;;0.50;;
21266;SDS011;10791;53.108;18.326;2024-01-15T06:12:22;1.40;;;1.10;;
21266;SDS011;10791;53.108;18.326;2024-01-15T06:17:26;1.17;;;0.87;;
21266;SDS011;10791;53.108;18.326;2024-01-15T06:22:29;2.93;;;0.80;;
21266;SDS011;10791;53.108;18.326;2024-01-15T06:27:33;2.27;;;1.50;;
21266;SDS011;10791;53.108;18.326;2024-01-15T06:32:36;2.87;;;0.90;;
21266;SDS011;10791;53.108;18.326;2024-01-15T06:37:40;2.10;;;1.27;;
21266;SDS011;10791;53.108;18.326;2024-01-15T06:42:43;1.03;;;0.80;;
21266;SDS011;10791;53.108;18.326;2024-01-15T06:47:48;1.97;;;0.90;;
21266;SDS011;10791;53.108;18.326;2024-01-15T06:52:54;1.10;;;0.80;;
21266;SDS011;10791;53.108;18.326;2024-01-15T06:57:59;2.37;;;1.20;;
21266;SDS011;10791;53.108;18.326;2024-01-15T07:03:21;3.80;;;1.60;;
21266;SDS011;10791;53.108;18.326;2024-01-15T07:08:24;2.07;;;1.40;;
21266;SDS011;10791;53.108;18.326;2024-01-15T07:13:30;2.03;;;0.93;;
21266;SDS011;10791;53.108;18.326;2024-01-15T07:18:38;2.33;;;1.57;;
21266;SDS011;10791;53.108;18.326;2024-01-15T07:23:42;6.90;;;1.90;;
21266;SDS011;10791;53.108;18.326;2024-01-15T07:28:45;8.20;;;2.03;;
21266;SDS011;10791;53.108;18.326;2024-01-15T07:33:49;2.77;;;1.17;;
21266;SDS011;10791;53.108;18.326;2024-01-15T07:38:52;4.27;;;1.80;;
21266;SDS011;10791;53.108;18.326;2024-01-15T07:43:55;4.53;;;1.93;;
21266;SDS011;10791;53.108;18.326;2024-01-15T07:48:59;3.97;;;1.73;;
21266;SDS011;10791;53.108;18.326;2024-01-15T07:54:02;2.97;;;1.63;;
21266;SDS011;10791;53.108;18.326;2024-01-15T07:59:06;7.97;;;3.00;;
21266;SDS011;10791;53.108;18.326;2024-01-15T08:04:09;3.47;;;2.17;;
21266;SDS011;10791;53.108;18.326;2024-01-15T08:09:15;3.40;;;1.80;;
21266;SDS011;10791;53.108;18.326;2024-01-15T08:14:19;8.53;;;1.93;;
21266;SDS011;10791;53.108;18.326;2024-01-15T08:19:23;4.73;;;2.77;;
21266;SDS011;10791;53.108;18.326;2024-01-15T08:24:27;8.40;;;2.00;;
21266;SDS011;10791;53.108;18.326;2024-01-15T08:29:32;5.57;;;1.67;;
21266;SDS011;10791;53.108;18.326;2024-01-15T08:34:38;4.17;;;1.73;;
21266;SDS011;10791;53.108;18.326;2024-01-15T08:39:44;2.70;;;1.53;;
21266;SDS011;10791;53.108;18.326;2024-01-15T08:44:50;2.20;;;1.43;;
21266;SDS011;10791;53.108;18.326;2024-01-15T08:49:54;6.20;;;2.03;;
21266;SDS011;10791;53.108;18.326;2024-01-15T08:54:58;5.50;;;2.00;;
21266;SDS011;10791;53.108;18.326;2024-01-15T09:00:02;3.70;;;1.67;;
21266;SDS011;10791;53.108;18.326;2024-01-15T09:05:06;4.43;;;2.30;;
21266;SDS011;10791;53.108;18.326;2024-01-15T09:10:11;2.20;;;1.37;;
21266;SDS011;10791;53.108;18.326;2024-01-15T09:15:15;2.87;;;1.97;;
21266;SDS011;10791;53.108;18.326;2024-01-15T09:20:19;3.50;;;1.47;;
21266;SDS011;10791;53.108;18.326;2024-01-15T09:25:23;4.50;;;2.57;;
21266;SDS011;10791;53.108;18.326;2024-01-15T09:30:27;1.47;;;1.20;;
21266;SDS011;10791;53.108;18.326;2024-01-15T09:35:30;3.53;;;1.40;;
21266;SDS011;10791;53.108;18.326;2024-01-15T09:40:34;6.60;;;1.87;;
21266;SDS011;10791;53.108;18.326;2024-01-15T09:45:44;5.00;;;1.70;;
21266;SDS011;10791;53.108;18.326;2024-01-15T09:57:06;5.33;;;2.37;;
21266;SDS011;10791;53.108;18.326;2024-01-15T10:02:12;4.40;;;1.67;;
21266;SDS011;10791;53.108;18.326;2024-01-15T10:07:20;1.83;;;1.33;;
21266;SDS011;10791;53.108;18.326;2024-01-15T10:12:25;3.70;;;1.73;;
21266;SDS011;10791;53.108;18.326;2024-01-15T10:17:30;7.53;;;2.03;;
21266;SDS011;10791;53.108;18.326;2024-01-15T10:22:33;5.87;;;1.70;;
21266;SDS011;10791;53.108;18.326;2024-01-15T10:27:40;1.90;;;1.33;;
21266;SDS011;10791;53.108;18.326;2024-01-15T10:32:45;1.77;;;1.43;;
21266;SDS011;10791;53.108;18.326;2024-01-15T10:38:01;2.03;;;1.10;;
21266;SDS011;10791;53.108;18.326;2024-01-15T10:43:05;0.70;;;0.50;;
21266;SDS011;10791;53.108;18.326;2024-01-15T10:48:10;2.90;;;1.23;;
21266;SDS011;10791;53.108;18.326;2024-01-15T10:53:15;2.37;;;1.30;;
21266;SDS011;10791;53.108;18.326;2024-01-15T10:58:20;1.27;;;0.97;;
21266;SDS011;10791;53.108;18.326;2024-01-15T11:03:25;0.80;;;0.80;;
21266;SDS011;10791;53.108;18.326;2024-01-15T11:08:30;1.17;;;0.70;;
21266;SDS011;10791;53.108;18.326;2024-01-15T11:18:41;1.07;;;0.90;;
21266;SDS011;10791;53.108;18.326;2024-01-15T11:23:49;1.83;;;0.63;;
21266;SDS011;10791;53.108;18.326;2024-01-15T11:29:01;1.53;;;0.40;;
21266;SDS011;10791;53.108;18.326;2024-01-15T11:34:12;4.10;;;1.50;;
21266;SDS011;10791;53.108;18.326;2024-01-15T11:44:40;0.97;;;0.70;;
21266;SDS011;10791;53.108;18.326;2024-01-15T11:49:58;2.27;;;0.80;;
21266;SDS011;10791;53.108;18.326;2024-01-15T12:00:19;1.97;;;1.30;;
21266;SDS011;10791;53.108;18.326;2024-01-15T12:05:23;1.90;;;0.73;;
21266;SDS011;10791;53.108;18.326;2024-01-15T12:10:26;1.20;;;0.60;;
21266;SDS011;10791;53.108;18.326;2024-01-15T12:15:30;1.27;;;0.43;;
21266;SDS011;10791;53.108;18.326;2024-01-15T12:20:33;1.03;;;0.70;;
21266;SDS011;10791;53.108;18.326;2024-01-15T12:25:38;0.60;;;0.30;;
21266;SDS011;10791;53.108;18.326;2024-01-15T12:30:46;1.60;;;0.60;;
21266;SDS011;10791;53.108;18.326;2024-01-15T12:35:52;0.50;;;0.43;;
21266;SDS011;10791;53.108;18.326;2024-01-15T12:40:56;1.80;;;1.03;;
21266;SDS011;10791;53.108;18.326;2024-01-15T12:45:59;1.53;;;1.00;;
21266;SDS011;10791;53.108;18.326;2024-01-15T12:51:05;0.50;;;0.43;;
21266;SDS011;10791;53.108;18.326;2024-01-15T12:56:09;0.60;;;0.60;;
21266;SDS011;10791;53.108;18.326;2024-01-15T13:01:12;3.67;;;0.43;;
21266;SDS011;10791;53.108;18.326;2024-01-15T13:06:16;0.33;;;0.33;;
21266;SDS011;10791;53.108;18.326;2024-01-15T13:11:20;1.03;;;0.60;;
21266;SDS011;10791;53.108;18.326;2024-01-15T13:16:24;0.73;;;0.53;;
21266;SDS011;10791;53.108;18.326;2024-01-15T13:21:31;1.63;;;0.80;;
21266;SDS011;10791;53.108;18.326;2024-01-15T13:26:34;3.67;;;0.80;;
21266;SDS011;10791;53.108;18.326;2024-01-15T13:31:40;0.90;;;0.57;;
21266;SDS011;10791;53.108;18.326;2024-01-15T13:36:44;0.50;;;0.30;;
21266;SDS011;10791;53.108;18.326;2024-01-15T13:41:47;0.63;;;0.43;;
21266;SDS011;10791;53.108;18.326;2024-01-15T13:46:50;0.30;;;0.30;;
21266;SDS011;10791;53.108;18.326;2024-01-15T13:51:55;0.63;;;0.40;;
21266;SDS011;10791;53.108;18.326;2024-01-15T13:56:59;1.40;;;0.50;;
21266;SDS011;10791;53.108;18.326;2024-01-15T14:02:02;0.50;;;0.50;;
21266;SDS011;10791;53.108;18.326;2024-01-15T14:07:05;2.63;;;1.10;;
21266;SDS011;10791;53.108;18.326;2024-01-15T14:12:08;1.53;;;0.60;;
21266;SDS011;10791;53.108;18.326;2024-01-15T14:17:11;3.23;;;0.40;;
21266;SDS011;10791;53.108;18.326;2024-01-15T14:22:15;2.30;;;1.10;;
21266;SDS011;10791;53.108;18.326;2024-01-15T14:27:18;0.60;;;0.53;;
21266;SDS011;10791;53.108;18.326;2024-01-15T14:32:21;0.97;;;0.50;;
21266;SDS011;10791;53.108;18.326;2024-01-15T14:37:25;1.13;;;0.50;;
21266;SDS011;10791;53.108;18.326;2024-01-15T14:42:28;9.00;;;0.93;;
21266;SDS011;10791;53.108;18.326;2024-01-15T14:47:31;0.60;;;0.60;;
21266;SDS011;10791;53.108;18.326;2024-01-15T14:52:36;0.63;;;0.53;;
21266;SDS011;10791;53.108;18.326;2024-01-15T14:57:39;0.73;;;0.70;;
21266;SDS011;10791;53.108;18.326;2024-01-15T15:02:43;0.60;;;0.43;;
21266;SDS011;10791;53.108;18.326;2024-01-15T15:07:46;0.30;;;0.30;;
21266;SDS011;10791;53.108;18.326;2024-01-15T15:12:50;0.67;;;0.47;;
21266;SDS011;10791;53.108;18.326;2024-01-15T15:17:54;3.60;;;0.50;;
21266;SDS011;10791;53.108;18.326;2024-01-15T15:22:57;0.63;;;0.30;;
21266;SDS011;10791;53.108;18.326;2024-01-15T15:28:01;0.30;;;0.30;;
21266;SDS011;10791;53.108;18.326;2024-01-15T15:33:07;0.30;;;0.30;;
21266;SDS011;10791;53.108;18.326;2024-01-15T15:38:10;1.20;;;0.80;;
21266;SDS011;10791;53.108;18.326;2024-01-15T15:43:14;4.87;;;1.93;;
21266;SDS011;10791;53.108;18.326;2024-01-15T15:48:18;0.83;;;0.40;;
21266;SDS011;10791;53.108;18.326;2024-01-15T15:53:21;0.30;;;0.30;;
21266;SDS011;10791;53.108;18.326;2024-01-15T15:58:25;0.40;;;0.40;;
21266;SDS011;10791;53.108;18.326;2024-01-15T16:03:28;1.43;;;0.90;;
21266;SDS011;10791;53.108;18.326;2024-01-15T16:08:31;0.40;;;0.40;;
21266;SDS011;10791;53.108;18.326;2024-01-15T16:13:35;0.27;;;0.27;;
21266;SDS011;10791;53.108;18.326;2024-01-15T16:18:38;2.90;;;0.60;;
21266;SDS011;10791;53.108;18.326;2024-01-15T16:24:01;3.87;;;1.13;;
21266;SDS011;10791;53.108;18.326;2024-01-15T16:29:24;0.60;;;0.53;;
21266;SDS011;10791;53.108;18.326;2024-01-15T16:34:28;2.20;;;0.83;;
21266;SDS011;10791;53.108;18.326;2024-01-15T16:39:31;2.27;;;0.77;;
21266;SDS011;10791;53.108;18.326;2024-01-15T16:44:35;0.60;;;0.60;;
21266;SDS011;10791;53.108;18.326;2024-01-15T16:49:38;0.53;;;0.50;;
21266;SDS011;10791;53.108;18.326;2024-01-15T16:54:42;0.57;;;0.57;;
21266;SDS011;10791;53.108;18.326;2024-01-15T16:59:45;0.97;;;0.50;;
21266;SDS011;10791;53.108;18.326;2024-01-15T17:04:48;1.73;;;0.63;;
21266;SDS011;10791;53.108;18.326;2024-01-15T17:09:51;1.23;;;0.87;;
21266;SDS011;10791;53.108;18.326;2024-01-15T17:14:55;0.30;;;0.30;;
21266;SDS011;10791;53.108;18.326;2024-01-15T17:19:58;0.67;;;0.40;;
21266;SDS011;10791;53.108;18.326;2024-01-15T17:25:04;0.30;;;0.30;;
21266;SDS011;10791;53.108;18.326;2024-01-15T17:30:08;2.50;;;0.40;;
21266;SDS011;10791;53.108;18.326;2024-01-15T17:35:12;1.60;;;0.67;;
21266;SDS011;10791;53.108;18.326;2024-01-15T17:40:16;0.30;;;0.30;;
21266;SDS011;10791;53.108;18.326;2024-01-15T17:45:26;2.77;;;0.50;;
21266;SDS011;10791;53.108;18.326;2024-01-15T17:50:33;0.67;;;0.67;;
21266;SDS011;10791;53.108;18.326;2024-01-15T17:56:01;0.10;;;0.10;;
21266;SDS011;10791;53.108;18.326;2024-01-15T18:01:08;0.53;;;0.30;;
21266;SDS011;10791;53.108;18.326;2024-01-15T18:06:38;0.77;;;0.60;;
21266;SDS011;10791;53.108;18.326;2024-01-15T18:11:43;2.13;;;0.67;;
21266;SDS011;10791;53.108;18.326;2024-01-15T18:17:29;1.53;;;0.40;;
21266;SDS011;10791;53.108;18.326;2024-01-15T18:23:11;0.80;;;0.40;;
21266;SDS011;10791;53.108;18.326;2024-01-15T18:28:53;0.40;;;0.40;;
21266;SDS011;10791;53.108;18.326;2024-01-15T18:34:40;0.70;;;0.70;;
21266;SDS011;10791;53.108;18.326;2024-01-15T18:40:32;0.50;;;0.50;;
21266;SDS011;10791;53.108;18.326;2024-01-15T18:45:56;10.33;;;0.47;;
21266;SDS011;10791;53.108;18.326;2024-01-15T18:51:02;0.30;;;0.30;;
21266;SDS011;10791;53.108;18.326;2024-01-15T18:56:24;0.20;;;0.20;;
21266;SDS011;10791;53.108;18.326;2024-01-15T19:02:16;0.20;;;0.20;;
21266;SDS011;10791;53.108;18.326;2024-01-15T19:08:21;0.20;;;0.20;;
21266;SDS011;10791;53.108;18.326;2024-01-15T19:14:05;3.40;;;0.60;;
21266;SDS011;10791;53.108;18.326;2024-01-15T19:20:01;0.23;;;0.23;;
21266;SDS011;10791;53.108;18.326;2024-01-15T19:25:37;1.40;;;0.57;;
21266;SDS011;10791;53.108;18.326;2024-01-15T19:31:17;0.73;;;0.60;;
21266;SDS011;10791;53.108;18.326;2024-01-15T19:36:53;0.50;;;0.50;;
21266;SDS011;10791;53.108;18.326;2024-01-15T19:42:32;0.30;;;0.30;;
21266;SDS011;10791;53.108;18.326;2024-01-15T19:48:16;0.20;;;0.20;;
21266;SDS011;10791;53.108;18.326;2024-01-15T19:53:23;0.20;;;0.20;;
21266;SDS011;10791;53.108;18.326;2024-01-15T19:58:27;0.20;;;0.20;;
21266;SDS011;10791;53.108;18.326;2024-01-15T20:03:31;0.20;;;0.20;;
21266;SDS011;10791;53.108;18.326;2024-01-15T20:08:39;0.30;;;0.30;;
21266;SDS011;10791;53.108;18.326;2024-01-15T20:14:44;0.50;;;0.50;;
21266;SDS011;10791;53.108;18.326;2024-01-15T20:19:47;0.57;;;0.57;;
21266;SDS011;10791;53.108;18.326;2024-01-15T20:24:57;0.50;;;0.50;;
21266;SDS011;10791;53.108;18.326;2024-01-15T20:30:19;0.40;;;0.40;;
21266;SDS011;10791;53.108;18.326;2024-01-15T20:36:19;0.40;;;0.40;;
21266;SDS011;10791;53.108;18.326;2024-01-15T20:41:22;0.20;;;0.20;;
21266;SDS011;10791;53.108;18.326;2024-01-15T20:46:27;1.90;;;1.03;;
21266;SDS011;10791;53.108;18.326;2024-01-15T20:51:31;0.30;;;0.30;;
21266;SDS011;10791;53.108;18.326;2024-01-15T20:56:36;0.30;;;0.30;;
21266;SDS011;10791;53.108;18.326;2024-01-15T21:02:27;0.40;;;0.40;;
21266;SDS011;10791;53.108;18.326;2024-01-15T21:07:32;0.83;;;0.40;;
21266;SDS011;10791;53.108;18.326;2024-01-15T21:12:47;0.27;;;0.27;;
21266;SDS011;10791;53.108;18.326;2024-01-15T21:17:51;0.37;;;0.37;;
21266;SDS011;10791;53.108;18.326;2024-01-15T21:22:57;0.27;;;0.20;;
21266;SDS011;10791;53.108;18.326;2024-01-15T21:28:12;0.80;;;0.50;;
21266;SDS011;10791;53.108;18.326;2024-01-15T21:33:15;0.60;;;0.37;;
21266;SDS011;10791;53.108;18.326;2024-01-15T21:38:18;0.73;;;0.73;;
21266;SDS011;10791;53.108;18.326;2024-01-15T21:43:22;0.47;;;0.47;;
21266;SDS011;10791;53.108;18.326;2024-01-15T21:48:25;0.27;;;0.27;;
21266;SDS011;10791;53.108;18.326;2024-01-15T21:53:29;0.27;;;0.27;;
21266;SDS011;10791;53.108;18.326;2024-01-15T21:58:33;4.17;;;1.20;;
21266;SDS011;10791;53.108;18.326;2024-01-15T22:03:36;0.33;;;0.30;;
21266;SDS011;10791;53.108;18.326;2024-01-15T22:09:06;0.53;;;0.53;;
21266;SDS011;10791;53.108;18.326;2024-01-15T22:14:09;0.70;;;0.47;;
21266;SDS011;10791;53.108;18.326;2024-01-15T22:19:13;0.30;;;0.30;;
21266;SDS011;10791;53.108;18.326;2024-01-15T22:24:27;0.40;;;0.40;;
21266;SDS011;10791;53.108;18.326;2024-01-15T22:29:43;0.27;;;0.27;;
21266;SDS011;10791;53.108;18.326;2024-01-15T22:34:55;0.30;;;0.30;;
21266;SDS011;10791;53.108;18.326;2024-01-15T22:40:37;8.33;;;0.50;;
21266;SDS011;10791;53.108;18.326;2024-01-15T22:45:41;0.20;;;0.20;;
21266;SDS011;10791;53.108;18.326;2024-01-15T22:51:02;0.50;;;0.50;;
21266;SDS011;10791;53.108;18.326;2024-01-15T22:56:05;0.40;;;0.40;;
21266;SDS011;10791;53.108;18.326;2024-01-15T23:01:09;0.30;;;0.30;;
21266;SDS011;10791;53.108;18.326;2024-01-15T23:13:02;0.30;;;0.30;;
21266;SDS011;10791;53.108;18.326;2024-01-15T23:18:06;0.47;;;0.47;;
21266;SDS011;10791;53.108;18.326;2024-01-15T23:23:10;5.60;;;0.60;;
21266;SDS011;10791;53.108;18.326;2024-01-15T23:28:13;0.20;;;0.20;;
21266;SDS011;10791;53.108;18.326;2024-01-15T23:33:16;0.30;;;0.30;;
21266;SDS011;10791;53.108;18.326;2024-01-15T23:38:20;0.30;;;0.30;;
21266;SDS011;10791;53.108;18.326;2024-01-15T23:43:23;0.20;;;0.20;;
21266;SDS011;10791;53.108;18.326;2024-01-15T23:48:26;0.37;;;0.30;;
21266;SDS011;10791;53.108;18.326;2024-01-15T23:53:30;0.30;;;0.30;;
21266;SDS011;10791;53.108;18.326;2024-01-15T23:58:33;0.30;;;0.30;;
